Time;durP1;ratioP1;P1;durP2;ratioP2;P2;SDS_P1;SDS_P2;PMS_P1;PMS_P2;Temp;Humidity;BMP_temperature;BMP_pressure;BME280_temperature;BME280_humidity;BME280_pressure;Samples;Min_cycle;Max_cycle;Signal;HPM_P1;HPM_P2
2023/02/16 00:00:36;;;;;;;50.53;34.63;;;;;;;3.17;87.77;101286.91;10326434;28;20046;-64
2023/02/16 00:05:38;;;;;;;50.50;32.90;;;;;;;3.35;86.56;101274.91;10311228;28;20141;-63
2023/02/16 00:10:40;;;;;;;53.85;35.65;;;;;;;3.52;86.59;101282.22;10308924;28;20054;-65
2023/02/16 00:15:42;;;;;;;50.17;34.60;;;;;;;3.48;86.45;101269.22;10312992;28;20074;-63
2023/02/16 00:20:44;;;;;;;58.15;37.20;;;;;;;3.56;86.47;101282.09;10335276;28;20050;-64
2023/02/16 00:25:45;;;;;;;53.53;35.10;;;;;;;3.50;86.08;101273.53;10313442;28;20045;-64
2023/02/16 00:30:48;;;;;;;53.13;35.05;;;;;;;3.41;86.63;101267.69;10311493;28;20046;-65
2023/02/16 00:35:50;;;;;;;53.25;34.28;;;;;;;3.41;87.33;101280.88;10312954;28;20176;-65
2023/02/16 00:40:51;;;;;;;55.97;35.47;;;;;;;3.32;87.59;101263.63;10310144;28;20073;-64
2023/02/16 00:45:53;;;;;;;57.13;34.95;;;;;;;3.32;87.23;101242.59;10310883;28;20165;-66
2023/02/16 00:50:55;;;;;;;53.55;34.97;;;;;;;3.59;86.21;101260.94;10310975;28;20050;-65
2023/02/16 00:55:56;;;;;;;52.70;33.60;;;;;;;3.62;86.12;101255.56;10310168;28;20251;-65
2023/02/16 01:01:05;;;;;;;55.33;34.97;;;;;;;3.46;87.53;101274.53;10309456;28;20045;-64
2023/02/16 01:11:27;;;;;;;55.17;36.00;;;;;;;3.37;87.79;101264.31;10304377;28;20046;-64
2023/02/16 01:16:36;;;;;;;48.40;31.40;;;;;;;3.43;87.59;101261.47;10307382;28;20117;-64
2023/02/16 01:21:38;;;;;;;50.85;32.08;;;;;;;3.36;87.46;101244.16;10310223;28;20042;-64
2023/02/16 01:26:44;;;;;;;54.25;35.78;;;;;;;3.22;88.34;101236.75;10314216;28;20124;-63
2023/02/16 01:31:46;;;;;;;60.55;35.97;;;;;;;3.34;88.57;101251.28;10307206;28;20038;-63
2023/02/16 01:36:48;;;;;;;57.85;36.25;;;;;;;3.31;88.75;101244.34;10307829;28;20058;-64
2023/02/16 01:42:04;;;;;;;62.75;37.63;;;;;;;3.35;88.76;101247.75;10306079;28;20572;-64
2023/02/16 01:47:17;;;;;;;57.67;37.38;;;;;;;3.33;88.39;101234.63;10307971;28;20054;-66
2023/02/16 01:52:30;;;;;;;58.17;36.75;;;;;;;3.28;89.16;101235.69;10309153;28;20061;-65
2023/02/16 01:57:40;;;;;;;57.97;36.20;;;;;;;3.26;89.14;101237.50;10305887;28;20052;-66
2023/02/16 02:02:48;;;;;;;60.92;36.70;;;;;;;3.31;88.65;101222.44;10301993;28;20497;-64
2023/02/16 02:07:59;;;;;;;54.40;34.92;;;;;;;3.44;88.18;101234.25;10306051;28;20057;-65
2023/02/16 02:13:17;;;;;;;58.78;36.30;;;;;;;3.50;87.98;101230.56;10308794;28;20147;-64
2023/02/16 02:18:18;;;;;;;53.78;35.05;;;;;;;3.38;88.21;101216.03;10305589;28;20544;-65
2023/02/16 02:23:32;;;;;;;60.97;39.85;;;;;;;3.38;88.14;101230.97;10304809;28;20611;-64
2023/02/16 02:29:04;;;;;;;59.45;34.85;;;;;;;3.39;88.54;101222.16;10317578;28;20054;-66
2023/02/16 02:34:39;;;;;;;66.47;39.63;;;;;;;3.30;89.35;101218.06;10293613;28;20248;-65
2023/02/16 02:40:15;;;;;;;61.30;37.58;;;;;;;3.12;89.66;101203.78;10307237;28;20223;-64
2023/02/16 02:45:31;;;;;;;65.18;37.90;;;;;;;3.10;90.53;101190.69;10325916;28;20084;-64
2023/02/16 02:51:29;;;;;;;66.18;36.78;;;;;;;3.28;90.54;101191.81;10306981;28;20547;-64
2023/02/16 03:01:56;;;;;;;66.60;38.63;;;;;;;3.14;91.41;101213.34;10302824;28;20129;-64
2023/02/16 03:07:00;;;;;;;75.63;41.30;;;;;;;3.23;91.42;101208.66;10306172;28;20053;-64
2023/02/16 03:33:53;;;;;;;68.32;35.85;;;;;;;3.28;90.84;101217.28;10262978;28;20046;-69
2023/02/16 03:38:56;;;;;;;65.38;35.22;;;;;;;3.12;91.51;101191.50;10312840;28;20061;-66
2023/02/16 03:43:57;;;;;;;50.63;31.75;;;;;;;3.14;90.51;101202.81;10314798;28;20133;-65
2023/02/16 03:48:58;;;;;;;52.55;29.88;;;;;;;3.05;89.91;101192.63;10315232;28;20097;-65
2023/02/16 03:54:00;;;;;;;45.42;30.05;;;;;;;3.00;89.76;101207.69;10315714;28;20061;-65
2023/02/16 03:59:01;;;;;;;47.35;31.38;;;;;;;2.95;90.22;101212.25;10320648;28;20072;-64
2023/02/16 04:04:03;;;;;;;50.20;30.73;;;;;;;2.87;90.63;101219.50;10312969;28;20145;-64
2023/02/16 04:09:05;;;;;;;49.08;30.42;;;;;;;2.81;91.09;101200.41;10317234;28;20053;-63
2023/02/16 04:14:06;;;;;;;53.78;32.75;;;;;;;2.88;91.01;101216.00;10319225;28;20050;-64
2023/02/16 04:19:08;;;;;;;51.92;34.97;;;;;;;2.74;92.81;101217.28;10317653;28;20063;-64
2023/02/16 04:24:09;;;;;;;44.10;28.52;;;;;;;2.89;91.35;101217.72;10315017;28;20045;-65
2023/02/16 04:29:11;;;;;;;40.28;27.45;;;;;;;2.84;90.43;101220.50;10333587;28;20054;-63
2023/02/16 04:34:12;;;;;;;47.17;29.73;;;;;;;2.74;90.51;101209.41;10363467;28;20133;-64
2023/02/16 04:39:14;;;;;;;40.88;28.25;;;;;;;2.78;90.73;101210.19;10342575;28;20073;-63
2023/02/16 04:44:15;;;;;;;43.08;28.05;;;;;;;2.82;90.75;101220.56;10331353;28;20054;-63
2023/02/16 04:49:17;;;;;;;40.95;27.60;;;;;;;2.70;91.07;101214.81;10328149;28;20054;-66
2023/02/16 04:54:19;;;;;;;39.25;26.70;;;;;;;2.86;90.51;101207.28;10325109;28;20056;-64
2023/02/16 04:59:21;;;;;;;42.85;29.55;;;;;;;2.84;90.44;101220.50;10323003;28;20074;-65
2023/02/16 05:04:23;;;;;;;39.15;27.75;;;;;;;2.84;90.42;101223.13;10323668;28;20081;-65
2023/02/16 05:09:25;;;;;;;41.28;27.52;;;;;;;2.71;90.80;101209.50;10344787;28;20069;-65
2023/02/16 05:14:41;;;;;;;41.72;26.85;;;;;;;2.82;91.15;101220.56;10320293;28;20205;-64
2023/02/16 05:19:45;;;;;;;37.50;25.75;;;;;;;2.89;90.41;101212.44;10316032;28;20050;-64
2023/02/16 05:24:47;;;;;;;41.40;28.02;;;;;;;2.83;90.61;101224.88;10319681;28;20050;-66
2023/02/16 05:29:49;;;;;;;38.40;28.30;;;;;;;2.65;90.59;101209.72;10320265;28;20065;-66
2023/02/16 05:34:51;;;;;;;42.28;28.35;;;;;;;2.72;91.53;101228.75;10310382;28;20643;-65
2023/02/16 05:39:52;;;;;;;39.75;28.08;;;;;;;2.62;90.64;101222.94;10316720;28;20049;-66
2023/02/16 05:44:53;;;;;;;41.55;27.83;;;;;;;2.45;91.54;101229.59;10316895;28;20447;-66
2023/02/16 05:49:55;;;;;;;40.13;27.60;;;;;;;2.39;92.04;101232.41;10308872;28;20125;-69
2023/02/16 05:54:56;;;;;;;43.15;29.15;;;;;;;2.27;92.52;101227.56;10314111;28;20132;-65
2023/02/16 05:59:57;;;;;;;50.53;29.33;;;;;;;2.43;91.89;101239.31;10310625;28;20121;-64
2023/02/16 06:04:59;;;;;;;40.03;26.67;;;;;;;2.44;91.86;101246.25;10310817;28;20133;-67
2023/02/16 06:10:00;;;;;;;45.17;28.42;;;;;;;2.28;92.50;101229.25;10310293;28;20065;-65
2023/02/16 06:15:02;;;;;;;39.88;29.05;;;;;;;2.40;92.84;101242.03;10309834;28;20054;-68
2023/02/16 06:20:04;;;;;;;40.65;28.00;;;;;;;2.51;91.80;101253.97;10308728;28;20455;-64
2023/02/16 06:25:06;;;;;;;37.58;24.60;;;;;;;2.52;91.02;101234.66;10304060;28;20112;-67
2023/02/16 06:30:08;;;;;;;34.70;27.20;;;;;;;2.53;91.43;101252.16;10325919;28;20061;-65
2023/02/16 06:35:09;;;;;;;42.90;28.00;;;;;;;2.51;91.29;101256.59;10312451;28;20053;-64
2023/02/16 06:40:15;;;;;;;40.20;27.08;;;;;;;2.65;91.05;101272.81;10313167;28;20564;-66
2023/02/16 06:45:16;;;;;;;46.33;27.38;;;;;;;2.27;91.48;101236.28;10308593;28;20049;-65
2023/02/16 06:50:18;;;;;;;37.63;26.85;;;;;;;2.48;91.29;101266.31;10309232;28;20050;-65
2023/02/16 06:55:19;;;;;;;44.90;26.63;;;;;;;2.36;91.39;101266.69;10307382;28;20053;-64
2023/02/16 07:00:21;;;;;;;45.05;28.48;;;;;;;2.21;92.70;101269.78;10304494;28;20539;-66
2023/02/16 07:05:22;;;;;;;38.47;27.38;;;;;;;2.52;92.08;101281.97;10302720;28;20093;-65
2023/02/16 07:10:24;;;;;;;55.88;29.85;;;;;;;2.28;92.37;101284.44;10311264;28;20078;-67
2023/02/16 07:15:25;;;;;;;56.08;29.05;;;;;;;2.19;92.27;101258.44;10308176;28;20042;-67
2023/02/16 07:20:27;;;;;;;44.88;27.92;;;;;;;2.15;92.37;101262.94;10302556;28;20059;-66
2023/02/16 07:25:28;;;;;;;40.10;25.88;;;;;;;2.19;91.73;101274.19;10319893;28;20062;-66
2023/02/16 07:30:30;;;;;;;39.45;27.92;;;;;;;2.11;91.61;101256.88;10329540;28;20038;-67
2023/02/16 07:35:32;;;;;;;40.20;25.85;;;;;;;2.17;91.48;101283.91;10331785;28;20428;-65
2023/02/16 07:40:35;;;;;;;37.72;25.77;;;;;;;2.07;91.12;101265.78;10315848;28;20160;-68
2023/02/16 07:45:36;;;;;;;44.33;25.33;;;;;;;2.12;90.12;101294.53;10311037;28;20063;-65
2023/02/16 07:50:38;;;;;;;32.63;23.38;;;;;;;2.04;90.01;101302.63;10308092;28;20529;-66
2023/02/16 07:55:43;;;;;;;34.92;23.50;;;;;;;1.67;90.43;101287.88;10311851;28;20224;-68
2023/02/16 08:00:44;;;;;;;30.65;22.73;;;;;;;1.92;89.65;101297.72;10309395;28;20263;-67
2023/02/16 08:05:45;;;;;;;27.45;21.27;;;;;;;1.69;89.91;101296.56;10309755;28;20042;-66
2023/02/16 08:10:47;;;;;;;27.27;21.08;;;;;;;1.80;89.54;101293.66;10317093;28;20061;-66
2023/02/16 08:15:48;;;;;;;32.47;21.10;;;;;;;2.04;88.56;101297.38;10328862;28;20053;-65
2023/02/16 08:20:50;;;;;;;25.52;20.70;;;;;;;1.88;88.20;101286.44;10320944;28;20058;-66
2023/02/16 08:26:10;;;;;;;30.63;23.50;;;;;;;1.77;88.47;101278.88;10304155;28;20060;-67
2023/02/16 08:31:17;;;;;;;31.55;22.77;;;;;;;2.01;87.13;101255.47;10307881;28;20054;-67
2023/02/16 08:36:25;;;;;;;26.05;19.80;;;;;;;2.29;85.97;101283.53;10309948;28;20057;-66
2023/02/16 08:41:35;;;;;;;25.40;21.27;;;;;;;2.34;84.60;101281.63;10307954;28;20058;-67
2023/02/16 08:46:39;;;;;;;28.85;21.48;;;;;;;2.18;84.67;101299.63;10308665;28;20187;-67
2023/02/16 08:51:46;;;;;;;31.67;23.15;;;;;;;2.21;84.89;101309.19;10309701;28;20060;-66
2023/02/16 08:56:48;;;;;;;32.90;22.38;;;;;;;2.11;86.14;101301.53;10304876;28;20525;-70
2023/02/16 09:01:51;;;;;;;33.97;22.27;;;;;;;2.24;85.67;101306.47;10306456;28;20458;-66
2023/02/16 09:06:52;;;;;;;27.13;20.02;;;;;;;2.42;84.58;101316.41;10320986;28;20062;-66
2023/02/16 09:11:54;;;;;;;29.17;22.50;;;;;;;2.20;84.70;101308.28;10308120;28;20060;-66
2023/02/16 09:16:56;;;;;;;33.08;24.85;;;;;;;2.35;86.37;101311.41;10307464;28;20053;-64
2023/02/16 09:21:58;;;;;;;30.00;24.58;;;;;;;2.48;84.76;101303.09;10305441;28;20045;-64
2023/02/16 09:27:00;;;;;;;33.80;24.80;;;;;;;2.46;83.43;101320.69;10309921;28;20061;-67
2023/02/16 09:32:01;;;;;;;28.15;22.40;;;;;;;2.46;82.54;101307.56;10313234;28;20673;-66
2023/02/16 09:37:03;;;;;;;30.20;23.13;;;;;;;2.45;82.01;101295.31;10308715;28;20054;-65
2023/02/16 09:42:38;;;;;;;31.52;24.67;;;;;;;2.79;82.28;101320.56;10306083;28;20199;-66
2023/02/16 09:47:46;;;;;;;33.30;25.88;;;;;;;2.98;80.91;101306.84;10301509;28;20052;-66
2023/02/16 09:52:59;;;;;;;31.60;23.83;;;;;;;3.08;81.16;101318.78;10298862;28;20112;-67
2023/02/16 09:58:13;;;;;;;32.20;26.15;;;;;;;2.85;80.68;101311.63;10332424;28;20069;-67
2023/02/16 10:03:36;;;;;;;33.60;25.50;;;;;;;2.91;81.19;101334.25;10302570;28;20065;-66
2023/02/16 10:08:42;;;;;;;36.63;26.13;;;;;;;2.88;81.70;101321.19;10304088;28;20185;-68
2023/02/16 10:13:53;;;;;;;32.08;25.33;;;;;;;3.16;80.52;101322.03;10305296;28;20049;-67
2023/02/16 10:18:56;;;;;;;31.58;23.67;;;;;;;3.39;79.78;101315.13;10306434;28;20038;-67
2023/02/16 10:24:01;;;;;;;32.38;25.33;;;;;;;3.50;78.73;101310.38;10302412;28;20476;-66
2023/02/16 10:29:17;;;;;;;31.45;23.42;;;;;;;3.35;79.20;101321.44;10303372;28;20057;-67
2023/02/16 10:34:37;;;;;;;33.13;26.38;;;;;;;3.63;78.20;101325.75;10299479;28;20054;-66
2023/02/16 10:39:52;;;;;;;32.88;26.33;;;;;;;3.44;79.28;101314.97;10303096;28;20062;-67
2023/02/16 10:45:16;;;;;;;31.30;25.47;;;;;;;3.71;77.65;101314.03;10302873;28;20065;-65
2023/02/16 10:50:29;;;;;;;36.50;27.00;;;;;;;3.76;78.06;101305.97;10285038;28;20058;-66
2023/02/16 10:55:30;;;;;;;35.50;27.20;;;;;;;5.17;73.69;101304.16;10303042;28;20907;-66
2023/02/16 11:00:57;;;;;;;34.25;26.45;;;;;;;6.15;69.54;101288.50;10299586;28;20062;-65
2023/02/16 11:06:15;;;;;;;30.60;23.17;;;;;;;6.53;65.85;101270.00;10296271;28;20152;-64
2023/02/16 11:11:18;;;;;;;29.27;23.83;;;;;;;6.36;66.80;101269.94;10301933;28;20062;-65
2023/02/16 11:16:23;;;;;;;29.02;24.25;;;;;;;6.16;67.30;101265.56;10300366;28;20058;-65
2023/02/16 11:21:49;;;;;;;32.10;25.38;;;;;;;6.16;66.79;101260.28;10305584;28;20133;-64
2023/02/16 11:27:18;;;;;;;29.55;23.35;;;;;;;5.49;69.45;101238.56;10292771;28;20057;-65
2023/02/16 11:32:21;;;;;;;29.23;23.83;;;;;;;5.52;71.06;101240.22;10297478;28;20267;-66
2023/02/16 11:37:30;;;;;;;33.30;26.92;;;;;;;5.62;70.29;101226.53;10299620;28;20077;-64
2023/02/16 11:42:39;;;;;;;31.33;25.60;;;;;;;5.89;69.18;101239.44;10303478;28;20045;-65
2023/02/16 11:47:41;;;;;;;31.85;24.50;;;;;;;7.40;64.06;101224.25;10298818;28;20126;-65
2023/02/16 11:52:45;;;;;;;46.75;33.30;;;;;;;8.68;60.05;101224.47;10286555;28;20092;-65
2023/02/16 11:57:47;;;;;;;31.57;25.53;;;;;;;7.85;61.81;101227.22;10303733;28;20049;-65
2023/02/16 12:03:17;;;;;;;28.33;24.38;;;;;;;7.65;62.42;101233.56;10304384;28;20271;-65
2023/02/16 12:08:26;;;;;;;29.92;24.77;;;;;;;9.17;58.25;101226.94;10299688;28;20046;-66
2023/02/16 12:13:35;;;;;;;30.45;26.13;;;;;;;13.76;46.32;101201.78;10312954;28;20058;-66
2023/02/16 12:19:10;;;;;;;29.27;25.05;;;;;;;15.86;40.06;101184.41;10329842;28;20060;-67
2023/02/16 12:24:23;;;;;;;28.05;25.02;;;;;;;13.77;44.01;101192.78;10308826;28;20135;-66
2023/02/16 12:30:02;;;;;;;29.67;25.83;;;;;;;11.93;47.50;101181.59;10293886;28;20050;-69
2023/02/16 12:35:17;;;;;;;30.60;27.38;;;;;;;11.36;49.75;101150.03;10293277;28;20042;-67
2023/02/16 12:40:50;;;;;;;28.48;25.42;;;;;;;12.59;47.61;101175.09;10303949;28;20096;-65
2023/02/16 12:45:56;;;;;;;29.67;26.05;;;;;;;13.37;44.38;101166.47;10302254;28;20962;-66
2023/02/16 12:51:01;;;;;;;30.45;26.25;;;;;;;14.84;42.54;101170.78;10303624;28;20435;-68
2023/02/16 12:56:11;;;;;;;31.60;27.70;;;;;;;12.94;44.86;101155.53;10311028;28;20493;-66
2023/02/16 13:01:18;;;;;;;31.10;27.73;;;;;;;10.89;49.10;101120.38;10314933;28;20057;-67
2023/02/16 13:07:05;;;;;;;31.65;28.27;;;;;;;9.50;54.18;101154.09;10305147;28;20069;-67
2023/02/16 13:12:42;;;;;;;30.33;27.02;;;;;;;8.74;57.25;101133.03;10303634;28;20466;-65
2023/02/16 13:17:49;;;;;;;34.13;27.75;;;;;;;7.99;59.69;101138.97;10303352;28;20290;-67
2023/02/16 13:23:22;;;;;;;31.55;26.30;;;;;;;7.98;61.10;101124.00;10302604;28;20046;-66
2023/02/16 13:28:30;;;;;;;33.42;29.77;;;;;;;8.21;59.89;101104.16;10285499;28;21243;-64
2023/02/16 13:33:50;;;;;;;33.13;28.98;;;;;;;8.80;58.89;101104.28;10305928;28;20049;-65
2023/02/16 13:39:19;;;;;;;34.33;29.17;;;;;;;8.28;60.15;101088.72;10302654;28;20204;-64
2023/02/16 13:44:35;;;;;;;32.22;28.73;;;;;;;7.63;62.48;101076.47;10305030;28;20683;-64
2023/02/16 13:49:41;;;;;;;33.95;29.85;;;;;;;7.28;64.70;101103.06;10297182;28;20157;-66
2023/02/16 13:54:48;;;;;;;35.50;29.30;;;;;;;7.24;65.19;101082.97;10304033;28;20576;-65
2023/02/16 13:59:59;;;;;;;35.05;29.75;;;;;;;7.01;66.10;101078.88;10301531;28;20057;-64
2023/02/16 14:05:08;;;;;;;35.03;28.83;;;;;;;6.91;67.31;101065.28;10302712;28;20568;-65
2023/02/16 14:10:13;;;;;;;35.40;28.30;;;;;;;7.06;66.92;101069.75;10321659;28;20046;-65
2023/02/16 14:15:19;;;;;;;32.05;28.23;;;;;;;7.12;67.18;101073.03;10304867;28;20145;-66
2023/02/16 14:20:20;;;;;;;33.47;27.65;;;;;;;7.17;67.02;101076.28;10319063;28;20061;-66
2023/02/16 14:25:22;;;;;;;35.13;29.38;;;;;;;7.04;67.47;101074.31;10312950;28;20054;-65
2023/02/16 14:30:50;;;;;;;32.40;27.65;;;;;;;6.82;68.42;101063.97;10312472;28;20425;-66
2023/02/16 14:35:58;;;;;;;33.15;26.90;;;;;;;6.82;69.29;101068.41;10307183;28;20511;-64
2023/02/16 14:41:02;;;;;;;31.48;27.58;;;;;;;6.89;70.47;101077.72;10317025;28;20098;-64
2023/02/16 14:46:27;;;;;;;31.60;27.45;;;;;;;6.83;70.15;101051.59;10310294;28;20117;-67
2023/02/16 14:51:49;;;;;;;32.72;28.20;;;;;;;7.04;71.03;101066.34;10304656;28;20053;-64
2023/02/16 14:56:55;;;;;;;29.90;26.63;;;;;;;7.20;70.40;101054.94;10298098;28;20050;-64
2023/02/16 15:01:57;;;;;;;31.95;27.02;;;;;;;7.31;69.47;101052.59;10305221;28;20180;-64
2023/02/16 15:07:03;;;;;;;31.23;26.45;;;;;;;7.33;69.89;101066.59;10300812;28;20267;-64
2023/02/16 15:12:22;;;;;;;31.65;25.92;;;;;;;7.20;69.74;101045.19;10300102;28;20136;-65
2023/02/16 15:17:29;;;;;;;36.08;27.95;;;;;;;7.33;70.38;101042.75;10301625;28;21004;-64
2023/02/16 15:22:30;;;;;;;30.73;26.85;;;;;;;7.33;69.97;101050.69;10301522;28;20054;-64
2023/02/16 15:27:32;;;;;;;34.50;27.15;;;;;;;7.31;70.32;101044.63;10301375;28;20050;-64
2023/02/16 15:32:34;;;;;;;32.78;27.00;;;;;;;7.06;70.11;101026.56;10310365;28;20065;-64
2023/02/16 15:37:38;;;;;;;32.45;28.02;;;;;;;7.20;70.74;101060.25;10310664;28;20041;-65
2023/02/16 15:42:43;;;;;;;31.60;26.92;;;;;;;7.16;70.43;101043.66;10312571;28;20050;-65
2023/02/16 15:47:45;;;;;;;30.02;26.52;;;;;;;6.90;71.56;101047.69;10312617;28;20058;-65
2023/02/16 15:52:47;;;;;;;32.97;26.08;;;;;;;6.85;72.77;101034.69;10306172;28;21007;-66
2023/02/16 15:57:50;;;;;;;33.03;27.58;;;;;;;6.98;73.36;101034.91;10307308;28;20576;-64
2023/02/16 16:02:54;;;;;;;30.05;26.00;;;;;;;6.79;73.64;100991.84;10307923;28;20149;-64
2023/02/16 16:07:58;;;;;;;30.85;26.00;;;;;;;7.01;73.82;101013.56;10301114;28;20140;-65
2023/02/16 16:13:07;;;;;;;28.10;24.15;;;;;;;7.10;74.10;101003.41;10300649;28;20137;-64
2023/02/16 16:18:43;;;;;;;29.98;26.60;;;;;;;7.17;73.95;101008.28;10307532;28;20117;-65
2023/02/16 16:23:55;;;;;;;29.33;26.17;;;;;;;7.18;74.50;101003.88;10301697;28;20175;-65
2023/02/16 16:28:57;;;;;;;31.98;27.90;;;;;;;6.90;74.33;100952.41;10300621;28;20038;-65
2023/02/16 16:34:01;;;;;;;37.05;30.10;;;;;;;6.95;75.09;100997.16;10308111;28;20054;-65
2023/02/16 16:39:16;;;;;;;35.90;30.02;;;;;;;6.97;75.50;100984.72;10307116;28;21023;-65
2023/02/16 16:44:32;;;;;;;32.00;28.38;;;;;;;6.63;76.42;100978.53;10310241;28;20056;-63
2023/02/16 16:49:35;;;;;;;29.88;26.58;;;;;;;6.66;76.03;100981.88;10309239;28;20464;-65
2023/02/16 16:54:38;;;;;;;30.45;27.15;;;;;;;6.61;76.55;100981.28;10307878;28;20215;-65
2023/02/16 16:59:39;;;;;;;31.35;26.80;;;;;;;6.73;76.27;100996.50;10300806;28;20497;-66
2023/02/16 17:04:41;;;;;;;31.60;27.05;;;;;;;6.79;76.31;101008.56;10317299;28;20069;-64
2023/02/16 17:09:42;;;;;;;31.00;26.38;;;;;;;6.82;76.16;100994.31;10307412;28;20528;-64
2023/02/16 17:14:43;;;;;;;29.05;25.33;;;;;;;6.85;76.03;100996.81;10308739;28;20600;-65
2023/02/16 17:19:45;;;;;;;31.95;26.65;;;;;;;6.79;76.40;100987.38;10305425;28;20552;-64
2023/02/16 17:24:46;;;;;;;31.60;27.77;;;;;;;6.72;76.24;100994.81;10301096;28;20257;-64
2023/02/16 17:29:48;;;;;;;30.33;26.35;;;;;;;6.71;76.63;101000.16;10304684;28;20141;-65
2023/02/16 17:34:49;;;;;;;31.95;28.02;;;;;;;6.70;76.64;101001.94;10303256;28;20046;-64
2023/02/16 17:39:50;;;;;;;32.35;26.60;;;;;;;6.73;77.13;101008.88;10304305;28;20065;-66
2023/02/16 17:44:52;;;;;;;29.98;26.65;;;;;;;6.65;77.16;101009.28;10301291;28;20046;-64
2023/02/16 17:49:53;;;;;;;30.02;26.27;;;;;;;6.48;77.38;100988.97;10304400;28;20532;-63
2023/02/16 17:54:54;;;;;;;31.02;27.48;;;;;;;6.71;77.25;101019.53;10300738;28;20049;-64
2023/02/16 17:59:56;;;;;;;33.42;27.45;;;;;;;6.76;77.45;101007.88;10305507;28;21505;-62
2023/02/16 18:04:57;;;;;;;31.13;26.48;;;;;;;6.82;77.24;101012.84;10305472;28;20072;-63
2023/02/16 18:09:59;;;;;;;34.97;29.73;;;;;;;6.73;77.20;100983.25;10300298;28;20049;-63
2023/02/16 18:15:01;;;;;;;37.10;29.52;;;;;;;6.83;77.32;101009.25;10296833;28;20479;-62
2023/02/16 18:20:03;;;;;;;35.38;31.25;;;;;;;6.93;77.44;100994.59;10303540;28;20046;-63
2023/02/16 18:25:05;;;;;;;36.47;29.13;;;;;;;6.87;77.28;100997.56;10301177;28;20046;-64
2023/02/16 18:30:08;;;;;;;32.78;27.67;;;;;;;6.81;77.43;100976.72;10298306;28;20137;-64
2023/02/16 18:35:12;;;;;;;30.33;26.98;;;;;;;6.81;77.67;100977.56;10298486;28;20060;-63
2023/02/16 18:40:18;;;;;;;31.27;26.55;;;;;;;6.80;78.11;100975.00;10304343;28;20147;-64
2023/02/16 18:45:20;;;;;;;30.98;27.58;;;;;;;6.82;78.14;100974.00;10302043;28;20054;-63
2023/02/16 18:50:21;;;;;;;31.73;26.40;;;;;;;6.67;78.53;100967.72;10300515;28;20529;-64
2023/02/16 18:55:23;;;;;;;33.25;28.70;;;;;;;6.73;78.49;100974.50;10297412;28;20042;-64
2023/02/16 19:00:24;;;;;;;34.05;27.98;;;;;;;6.89;78.53;100990.38;10296476;28;20061;-63
2023/02/16 19:05:26;;;;;;;32.33;28.40;;;;;;;6.87;78.25;100986.97;10306992;28;20049;-63
2023/02/16 19:10:28;;;;;;;39.70;28.60;;;;;;;6.84;78.44;100984.50;10308616;28;20042;-63
2023/02/16 19:15:32;;;;;;;30.63;26.58;;;;;;;6.87;78.65;100987.81;10309506;28;20049;-63
2023/02/16 19:20:34;;;;;;;36.47;28.50;;;;;;;6.90;78.60;100997.41;10306497;28;20210;-63
2023/02/16 19:25:35;;;;;;;33.22;28.35;;;;;;;6.94;78.78;100988.38;10298920;28;20046;-63
2023/02/16 19:30:36;;;;;;;32.20;27.83;;;;;;;7.00;79.07;101003.91;10319110;28;20582;-64
2023/02/16 19:35:38;;;;;;;31.58;28.35;;;;;;;6.96;79.34;100994.41;10308318;28;20049;-63
2023/02/16 19:40:39;;;;;;;31.23;26.20;;;;;;;7.01;79.74;100997.69;10306243;28;20058;-64
2023/02/16 19:45:41;;;;;;;31.35;26.50;;;;;;;7.10;79.58;100996.34;10310987;28;20054;-65
2023/02/16 19:50:44;;;;;;;32.53;25.52;;;;;;;7.08;79.34;100988.47;10307254;28;20061;-66
2023/02/16 19:55:47;;;;;;;31.13;27.73;;;;;;;7.01;79.22;100975.63;10308768;28;20400;-64
2023/02/16 20:00:48;;;;;;;32.72;27.77;;;;;;;6.98;79.15;100974.03;10310287;28;20060;-63
2023/02/16 20:05:50;;;;;;;33.17;26.58;;;;;;;6.98;79.33;100966.09;10308670;28;20120;-64
2023/02/16 20:10:51;;;;;;;29.40;26.38;;;;;;;6.99;78.73;100951.06;10308753;28;20060;-65
2023/02/16 20:15:53;;;;;;;34.40;28.42;;;;;;;7.14;78.94;100970.53;10301631;28;20061;-64
2023/02/16 20:21:02;;;;;;;29.80;25.45;;;;;;;7.15;78.96;100967.81;10306014;28;20058;-64
2023/02/16 20:26:07;;;;;;;29.80;25.90;;;;;;;7.11;79.16;100962.78;10303137;28;20049;-63
2023/02/16 20:31:16;;;;;;;31.65;27.60;;;;;;;7.09;79.45;100968.16;10307744;28;20217;-62
2023/02/16 20:36:18;;;;;;;30.83;26.90;;;;;;;7.16;79.19;100955.41;10309039;28;20848;-64
2023/02/16 20:41:20;;;;;;;32.28;27.73;;;;;;;7.13;79.29;100945.00;10303173;28;20057;-63
2023/02/16 20:46:22;;;;;;;31.83;26.83;;;;;;;7.09;79.64;100944.31;10307201;28;20157;-64
2023/02/16 20:51:24;;;;;;;31.70;25.75;;;;;;;7.08;79.10;100948.75;10304561;28;20111;-63
2023/02/16 20:56:27;;;;;;;28.80;25.70;;;;;;;7.01;79.27;100946.53;10303912;28;20203;-63
2023/02/16 21:01:37;;;;;;;30.20;27.00;;;;;;;6.98;79.49;100938.75;10304073;28;20046;-62
2023/02/16 21:06:39;;;;;;;31.58;27.15;;;;;;;6.98;79.98;100934.34;10304575;28;20069;-64
2023/02/16 21:11:41;;;;;;;29.50;25.48;;;;;;;6.86;80.29;100917.31;10300699;28;21371;-63
2023/02/16 21:16:42;;;;;;;31.80;26.20;;;;;;;6.79;81.05;100915.94;10296846;28;20050;-64
2023/02/16 21:21:43;;;;;;;29.30;25.17;;;;;;;6.96;81.80;100922.94;10300864;28;20053;-63
2023/02/16 21:26:45;;;;;;;29.75;25.95;;;;;;;6.89;82.24;100914.50;10313308;28;20061;-64
2023/02/16 21:31:46;;;;;;;34.92;28.17;;;;;;;6.91;82.61;100911.78;10308421;28;20049;-64
2023/02/16 21:36:48;;;;;;;31.67;25.90;;;;;;;7.00;82.38;100903.31;10304081;28;20408;-63
2023/02/16 21:41:49;;;;;;;31.27;26.70;;;;;;;7.02;82.26;100904.09;10303991;28;20103;-63
2023/02/16 21:46:51;;;;;;;29.83;26.40;;;;;;;7.02;82.40;100893.50;10306051;28;20053;-63
2023/02/16 21:51:52;;;;;;;30.48;25.92;;;;;;;7.08;82.13;100901.09;10332175;28;20059;-63
2023/02/16 21:56:53;;;;;;;33.38;27.25;;;;;;;7.18;81.67;100882.06;10304123;28;20054;-63
2023/02/16 22:01:55;;;;;;;30.77;26.25;;;;;;;7.14;81.13;100877.88;10302132;28;20057;-63
2023/02/16 22:06:56;;;;;;;34.03;28.55;;;;;;;7.18;80.93;100882.06;10305435;28;20046;-63
2023/02/16 22:11:57;;;;;;;32.10;25.48;;;;;;;7.33;80.81;100885.66;10302498;28;20080;-63
2023/02/16 22:17:03;;;;;;;29.02;24.60;;;;;;;7.31;80.48;100875.13;10298307;28;20056;-64
2023/02/16 22:22:04;;;;;;;29.15;25.40;;;;;;;7.15;80.89;100855.75;10299178;28;20124;-63
2023/02/16 22:27:06;;;;;;;25.90;23.10;;;;;;;7.47;80.36;100895.44;10304124;28;20053;-64
2023/02/16 22:32:10;;;;;;;26.73;23.20;;;;;;;7.46;80.08;100885.78;10304129;28;20826;-65
2023/02/16 22:37:12;;;;;;;26.10;22.63;;;;;;;7.58;79.99;100885.94;10302251;28;20058;-64
2023/02/16 22:42:13;;;;;;;25.70;21.50;;;;;;;7.64;79.96;100902.41;10300789;28;20108;-64
2023/02/16 22:47:15;;;;;;;26.38;23.60;;;;;;;7.71;79.80;100891.38;10301433;28;20070;-65
2023/02/16 22:52:16;;;;;;;29.08;24.15;;;;;;;7.61;81.11;100874.28;10300480;28;20062;-64
2023/02/16 22:57:18;;;;;;;26.45;22.35;;;;;;;7.70;81.10;100884.38;10302931;28;20064;-63
2023/02/16 23:02:19;;;;;;;28.15;23.27;;;;;;;7.62;81.56;100876.00;10302835;28;20314;-63
2023/02/16 23:07:20;;;;;;;28.30;23.75;;;;;;;7.67;81.81;100894.28;10301350;28;20058;-63
2023/02/16 23:12:22;;;;;;;27.30;22.45;;;;;;;7.72;81.40;100901.03;10299770;28;20140;-64
2023/02/16 23:17:23;;;;;;;27.10;23.10;;;;;;;7.68;81.28;100883.59;10296479;28;20064;-64
2023/02/16 23:22:25;;;;;;;26.40;21.75;;;;;;;7.72;80.93;100885.13;10300445;28;20092;-64
2023/02/16 23:27:26;;;;;;;26.00;23.20;;;;;;;7.68;80.93;100888.91;10299329;28;20060;-64
2023/02/16 23:32:27;;;;;;;25.27;21.83;;;;;;;7.81;80.69;100891.69;10298855;28;20983;-63
2023/02/16 23:37:30;;;;;;;22.55;20.13;;;;;;;7.88;80.58;100878.91;10297659;28;20059;-63
2023/02/16 23:42:31;;;;;;;26.15;21.42;;;;;;;8.01;80.84;100881.72;10301521;28;20054;-61